sensor_id;sensor_type;location;lat;lon;timestamp;pressure;altitude;pressure_sealevel;temperature;humidity
25944;BME280;13742;49.306;8.636;2022-10-16T00:01:59;100281.09;;;16.49;100.00
25944;BME280;13742;49.306;8.636;2022-10-16T00:02:59;100283.05;;;16.50;100.00
25944;BME280;13742;49.306;8.636;2022-10-16T00:04:00;100280.42;;;16.50;100.00
25944;BME280;13742;49.306;8.636;2022-10-16T00:04:59;100283.71;;;16.50;100.00
25944;BME280;13742;49.306;8.636;2022-10-16T00:06:00;100280.65;;;16.50;100.00
25944;BME280;13742;49.306;8.636;2022-10-16T00:06:59;100281.27;;;16.51;100.00
25944;BME280;13742;49.306;8.636;2022-10-16T00:07:59;100285.92;;;16.50;100.00
25944;BME280;13742;49.306;8.636;2022-10-16T00:08:59;100283.31;;;16.50;100.00
25944;BME280;13742;49.306;8.636;2022-10-16T00:09:59;100286.14;;;16.50;100.00
25944;BME280;13742;49.306;8.636;2022-10-16T00:11:03;100286.16;;;16.49;100.00
25944;BME280;13742;49.306;8.636;2022-10-16T00:11:59;100286.70;;;16.49;100.00
25944;BME280;13742;49.306;8.636;2022-10-16T00:12:59;100291.75;;;16.50;100.00
25944;BME280;13742;49.306;8.636;2022-10-16T00:14:00;100292.65;;;16.50;100.00
25944;BME280;13742;49.306;8.636;2022-10-16T00:14:59;100296.09;;;16.51;100.00
25944;BME280;13742;49.306;8.636;2022-10-16T00:16:00;100293.69;;;16.51;100.00
25944;BME280;13742;49.306;8.636;2022-10-16T00:16:59;100290.65;;;16.50;100.00
25944;BME280;13742;49.306;8.636;2022-10-16T00:17:59;100294.43;;;16.51;100.00
25944;BME280;13742;49.306;8.636;2022-10-16T00:18:59;100290.25;;;16.49;100.00
25944;BME280;13742;49.306;8.636;2022-10-16T00:19:59;100292.42;;;16.50;100.00
25944;BME280;13742;49.306;8.636;2022-10-16T00:21:07;100287.33;;;16.49;100.00
25944;BME280;13742;49.306;8.636;2022-10-16T00:21:59;100290.77;;;16.49;100.00
25944;BME280;13742;49.306;8.636;2022-10-16T00:22:59;100286.92;;;16.50;100.00
25944;BME280;13742;49.306;8.636;2022-10-16T00:24:01;100287.48;;;16.50;100.00
25944;BME280;13742;49.306;8.636;2022-10-16T00:24:59;100287.30;;;16.50;100.00
25944;BME280;13742;49.306;8.636;2022-10-16T00:26:04;100292.15;;;16.50;100.00
25944;BME280;13742;49.306;8.636;2022-10-16T00:26:59;100291.19;;;16.51;100.00
25944;BME280;13742;49.306;8.636;2022-10-16T00:28:00;100285.16;;;16.49;100.00
25944;BME280;13742;49.306;8.636;2022-10-16T00:28:59;100284.55;;;16.50;100.00
25944;BME280;13742;49.306;8.636;2022-10-16T00:29:59;100277.77;;;16.49;100.00
25944;BME280;13742;49.306;8.636;2022-10-16T00:31:02;100267.36;;;16.49;100.00
25944;BME280;13742;49.306;8.636;2022-10-16T00:31:59;100260.25;;;16.49;100.00
25944;BME280;13742;49.306;8.636;2022-10-16T00:32:59;100256.66;;;16.47;100.00
25944;BME280;13742;49.306;8.636;2022-10-16T00:34:00;100253.91;;;16.47;100.00
25944;BME280;13742;49.306;8.636;2022-10-16T00:34:59;100257.54;;;16.48;100.00
25944;BME280;13742;49.306;8.636;2022-10-16T00:36:00;100264.98;;;16.47;100.00
25944;BME280;13742;49.306;8.636;2022-10-16T00:36:59;100265.81;;;16.47;100.00
25944;BME280;13742;49.306;8.636;2022-10-16T00:37:59;100269.59;;;16.49;100.00
25944;BME280;13742;49.306;8.636;2022-10-16T00:39:00;100267.47;;;16.48;100.00
25944;BME280;13742;49.306;8.636;2022-10-16T00:39:59;100270.80;;;16.48;100.00
25944;BME280;13742;49.306;8.636;2022-10-16T00:40:59;100278.58;;;16.47;100.00
25944;BME280;13742;49.306;8.636;2022-10-16T00:41:59;100281.32;;;16.47;100.00
25944;BME280;13742;49.306;8.636;2022-10-16T00:42:59;100283.70;;;16.48;100.00
25944;BME280;13742;49.306;8.636;2022-10-16T00:44:01;100280.08;;;16.47;100.00
25944;BME280;13742;49.306;8.636;2022-10-16T00:44:59;100279.20;;;16.48;100.00
25944;BME280;13742;49.306;8.636;2022-10-16T00:46:00;100279.64;;;16.47;100.00
25944;BME280;13742;49.306;8.636;2022-10-16T00:46:59;100278.75;;;16.47;100.00
25944;BME280;13742;49.306;8.636;2022-10-16T00:47:59;100286.76;;;16.47;100.00
25944;BME280;13742;49.306;8.636;2022-10-16T00:49:03;100291.14;;;16.48;100.00
25944;BME280;13742;49.306;8.636;2022-10-16T00:50:01;100291.77;;;16.47;100.00
25944;BME280;13742;49.306;8.636;2022-10-16T00:50:59;100292.32;;;16.47;100.00
25944;BME280;13742;49.306;8.636;2022-10-16T00:51:59;100297.98;;;16.47;100.00
25944;BME280;13742;49.306;8.636;2022-10-16T00:53:00;100298.27;;;16.46;100.00
25944;BME280;13742;49.306;8.636;2022-10-16T00:54:00;100302.26;;;16.47;100.00
25944;BME280;13742;49.306;8.636;2022-10-16T00:54:59;100301.05;;;16.48;100.00
25944;BME280;13742;49.306;8.636;2022-10-16T00:55:59;100305.27;;;16.47;100.00
25944;BME280;13742;49.306;8.636;2022-10-16T00:57:00;100303.26;;;16.47;100.00
25944;BME280;13742;49.306;8.636;2022-10-16T00:57:59;100301.64;;;16.48;100.00
25944;BME280;13742;49.306;8.636;2022-10-16T00:58:59;100300.26;;;16.47;100.00
25944;BME280;13742;49.306;8.636;2022-10-16T00:59:59;100297.92;;;16.47;100.00
25944;BME280;13742;49.306;8.636;2022-10-16T01:00:59;100292.81;;;16.47;100.00
25944;BME280;13742;49.306;8.636;2022-10-16T01:01:59;100296.77;;;16.46;100.00
25944;BME280;13742;49.306;8.636;2022-10-16T01:03:00;100297.09;;;16.46;100.00
25944;BME280;13742;49.306;8.636;2022-10-16T01:03:59;100296.38;;;16.46;100.00
25944;BME280;13742;49.306;8.636;2022-10-16T01:04:59;100293.48;;;16.45;100.00
25944;BME280;13742;49.306;8.636;2022-10-16T01:11:02;100292.55;;;16.43;100.00
25944;BME280;13742;49.306;8.636;2022-10-16T01:12:04;100293.20;;;16.42;100.00
25944;BME280;13742;49.306;8.636;2022-10-16T01:13:04;100291.48;;;16.42;100.00
25944;BME280;13742;49.306;8.636;2022-10-16T01:14:00;100292.89;;;16.42;100.00
25944;BME280;13742;49.306;8.636;2022-10-16T01:15:02;100293.81;;;16.42;100.00
25944;BME280;13742;49.306;8.636;2022-10-16T01:16:01;100294.94;;;16.41;100.00
25944;BME280;13742;49.306;8.636;2022-10-16T01:20:07;100298.77;;;16.43;100.00
25944;BME280;13742;49.306;8.636;2022-10-16T01:21:08;100301.48;;;16.42;100.00
25944;BME280;13742;49.306;8.636;2022-10-16T01:21:59;100301.92;;;16.41;100.00
25944;BME280;13742;49.306;8.636;2022-10-16T01:23:04;100303.26;;;16.41;100.00
25944;BME280;13742;49.306;8.636;2022-10-16T01:24:06;100303.38;;;16.40;100.00
25944;BME280;13742;49.306;8.636;2022-10-16T01:24:59;100304.48;;;16.41;100.00
25944;BME280;13742;49.306;8.636;2022-10-16T01:27:59;100302.31;;;16.40;100.00
25944;BME280;13742;49.306;8.636;2022-10-16T01:30:02;100299.66;;;16.39;100.00
25944;BME280;13742;49.306;8.636;2022-10-16T01:30:59;100296.09;;;16.40;100.00
25944;BME280;13742;49.306;8.636;2022-10-16T01:32:00;100296.81;;;16.39;100.00
25944;BME280;13742;49.306;8.636;2022-10-16T01:33:03;100297.94;;;16.38;100.00
25944;BME280;13742;49.306;8.636;2022-10-16T01:34:03;100300.77;;;16.38;100.00
25944;BME280;13742;49.306;8.636;2022-10-16T01:35:02;100298.53;;;16.38;100.00
25944;BME280;13742;49.306;8.636;2022-10-16T01:36:01;100298.77;;;16.38;100.00
25944;BME280;13742;49.306;8.636;2022-10-16T01:37:02;100300.48;;;16.37;100.00
25944;BME280;13742;49.306;8.636;2022-10-16T01:38:01;100302.16;;;16.38;100.00
25944;BME280;13742;49.306;8.636;2022-10-16T01:39:00;100305.94;;;16.38;100.00
25944;BME280;13742;49.306;8.636;2022-10-16T01:40:00;100303.83;;;16.38;100.00
25944;BME280;13742;49.306;8.636;2022-10-16T01:41:00;100305.20;;;16.38;100.00
25944;BME280;13742;49.306;8.636;2022-10-16T01:43:03;100300.88;;;16.37;100.00
25944;BME280;13742;49.306;8.636;2022-10-16T01:44:04;100301.11;;;16.38;100.00
25944;BME280;13742;49.306;8.636;2022-10-16T01:44:59;100300.20;;;16.38;100.00
25944;BME280;13742;49.306;8.636;2022-10-16T01:45:59;100299.70;;;16.38;100.00
25944;BME280;13742;49.306;8.636;2022-10-16T01:46:59;100302.11;;;16.38;100.00
25944;BME280;13742;49.306;8.636;2022-10-16T01:48:00;100295.33;;;16.38;100.00
25944;BME280;13742;49.306;8.636;2022-10-16T01:49:00;100296.33;;;16.38;100.00
25944;BME280;13742;49.306;8.636;2022-10-16T01:49:59;100298.61;;;16.38;100.00
25944;BME280;13742;49.306;8.636;2022-10-16T01:51:01;100301.05;;;16.39;100.00
25944;BME280;13742;49.306;8.636;2022-10-16T01:52:00;100296.03;;;16.38;100.00
25944;BME280;13742;49.306;8.636;2022-10-16T01:52:59;100298.88;;;16.39;100.00
25944;BME280;13742;49.306;8.636;2022-10-16T01:54:00;100302.88;;;16.39;100.00
25944;BME280;13742;49.306;8.636;2022-10-16T01:54:59;100304.16;;;16.39;100.00
25944;BME280;13742;49.306;8.636;2022-10-16T01:55:59;100307.93;;;16.40;100.00
25944;BME280;13742;49.306;8.636;2022-10-16T01:56:59;100310.50;;;16.39;100.00
25944;BME280;13742;49.306;8.636;2022-10-16T01:57:59;100310.33;;;16.39;100.00
25944;BME280;13742;49.306;8.636;2022-10-16T01:59:01;100307.21;;;16.39;100.00
25944;BME280;13742;49.306;8.636;2022-10-16T02:00:00;100310.22;;;16.39;100.00
25944;BME280;13742;49.306;8.636;2022-10-16T02:00:59;100311.48;;;16.39;100.00
25944;BME280;13742;49.306;8.636;2022-10-16T02:02:00;100317.61;;;16.38;100.00
25944;BME280;13742;49.306;8.636;2022-10-16T02:02:59;100316.15;;;16.37;100.00
25944;BME280;13742;49.306;8.636;2022-10-16T02:04:00;100318.94;;;16.35;100.00
25944;BME280;13742;49.306;8.636;2022-10-16T02:05:59;100321.27;;;16.35;100.00
25944;BME280;13742;49.306;8.636;2022-10-16T02:06:59;100317.37;;;16.35;100.00
25944;BME280;13742;49.306;8.636;2022-10-16T02:07:59;100317.37;;;16.35;100.00
25944;BME280;13742;49.306;8.636;2022-10-16T02:08:59;100314.27;;;16.35;100.00
25944;BME280;13742;49.306;8.636;2022-10-16T02:10:00;100315.00;;;16.35;100.00
25944;BME280;13742;49.306;8.636;2022-10-16T02:10:59;100313.48;;;16.34;100.00
25944;BME280;13742;49.306;8.636;2022-10-16T02:12:00;100308.27;;;16.34;100.00
25944;BME280;13742;49.306;8.636;2022-10-16T02:14:01;100313.31;;;16.34;100.00
25944;BME280;13742;49.306;8.636;2022-10-16T02:14:59;100314.27;;;16.33;100.00
25944;BME280;13742;49.306;8.636;2022-10-16T02:15:59;100317.48;;;16.33;100.00
25944;BME280;13742;49.306;8.636;2022-10-16T02:16:59;100319.55;;;16.34;100.00
25944;BME280;13742;49.306;8.636;2022-10-16T02:18:00;100320.27;;;16.35;100.00
25944;BME280;13742;49.306;8.636;2022-10-16T02:18:59;100317.87;;;16.35;100.00
25944;BME280;13742;49.306;8.636;2022-10-16T02:19:59;100318.05;;;16.36;100.00
25944;BME280;13742;49.306;8.636;2022-10-16T02:21:01;100320.27;;;16.35;100.00
25944;BME280;13742;49.306;8.636;2022-10-16T02:22:00;100323.99;;;16.35;100.00
25944;BME280;13742;49.306;8.636;2022-10-16T02:22:59;100321.33;;;16.33;100.00
25944;BME280;13742;49.306;8.636;2022-10-16T02:25:04;100321.00;;;16.33;100.00
25944;BME280;13742;49.306;8.636;2022-10-16T02:25:59;100315.92;;;16.33;100.00
25944;BME280;13742;49.306;8.636;2022-10-16T02:29:00;100314.14;;;16.33;100.00
25944;BME280;13742;49.306;8.636;2022-10-16T02:30:02;100313.31;;;16.33;100.00
25944;BME280;13742;49.306;8.636;2022-10-16T02:31:01;100314.94;;;16.32;100.00
25944;BME280;13742;49.306;8.636;2022-10-16T02:32:00;100315.84;;;16.31;100.00
25944;BME280;13742;49.306;8.636;2022-10-16T02:32:59;100315.55;;;16.31;100.00
25944;BME280;13742;49.306;8.636;2022-10-16T02:33:59;100314.28;;;16.31;100.00
25944;BME280;13742;49.306;8.636;2022-10-16T02:35:00;100314.95;;;16.31;100.00
25944;BME280;13742;49.306;8.636;2022-10-16T02:35:59;100312.00;;;16.30;100.00
25944;BME280;13742;49.306;8.636;2022-10-16T02:37:00;100313.61;;;16.29;100.00
25944;BME280;13742;49.306;8.636;2022-10-16T02:37:59;100316.95;;;16.30;100.00
25944;BME280;13742;49.306;8.636;2022-10-16T02:39:02;100318.56;;;16.29;100.00
25944;BME280;13742;49.306;8.636;2022-10-16T02:39:59;100321.06;;;16.28;100.00
25944;BME280;13742;49.306;8.636;2022-10-16T02:40:59;100317.02;;;16.28;100.00
25944;BME280;13742;49.306;8.636;2022-10-16T02:41:59;100315.51;;;16.29;100.00
25944;BME280;13742;49.306;8.636;2022-10-16T02:42:59;100317.61;;;16.29;100.00
25944;BME280;13742;49.306;8.636;2022-10-16T02:43:59;100311.73;;;16.29;100.00
25944;BME280;13742;49.306;8.636;2022-10-16T02:44:59;100317.78;;;16.29;100.00
25944;BME280;13742;49.306;8.636;2022-10-16T02:45:59;100317.62;;;16.28;100.00
25944;BME280;13742;49.306;8.636;2022-10-16T02:46:59;100320.73;;;16.27;100.00
25944;BME280;13742;49.306;8.636;2022-10-16T02:47:59;100319.34;;;16.26;100.00
25944;BME280;13742;49.306;8.636;2022-10-16T02:48:59;100320.78;;;16.27;100.00
25944;BME280;13742;49.306;8.636;2022-10-16T02:49:59;100315.41;;;16.26;100.00
25944;BME280;13742;49.306;8.636;2022-10-16T02:50:59;100314.19;;;16.25;100.00
25944;BME280;13742;49.306;8.636;2022-10-16T02:51:59;100310.80;;;16.24;100.00
25944;BME280;13742;49.306;8.636;2022-10-16T02:52:59;100314.28;;;16.24;100.00
25944;BME280;13742;49.306;8.636;2022-10-16T02:53:59;100313.07;;;16.23;100.00
25944;BME280;13742;49.306;8.636;2022-10-16T02:54:59;100313.84;;;16.22;100.00
25944;BME280;13742;49.306;8.636;2022-10-16T02:55:59;100320.73;;;16.23;100.00
25944;BME280;13742;49.306;8.636;2022-10-16T02:56:59;100321.33;;;16.23;100.00
25944;BME280;13742;49.306;8.636;2022-10-16T02:57:59;100326.84;;;16.22;100.00
25944;BME280;13742;49.306;8.636;2022-10-16T02:58:59;100324.39;;;16.23;100.00
25944;BME280;13742;49.306;8.636;2022-10-16T02:59:59;100326.95;;;16.22;100.00
25944;BME280;13742;49.306;8.636;2022-10-16T03:00:59;100331.05;;;16.23;100.00
25944;BME280;13742;49.306;8.636;2022-10-16T03:01:59;100331.40;;;16.23;100.00
25944;BME280;13742;49.306;8.636;2022-10-16T03:02:59;100334.50;;;16.23;100.00
25944;BME280;13742;49.306;8.636;2022-10-16T03:03:59;100332.22;;;16.23;100.00
25944;BME280;13742;49.306;8.636;2022-10-16T03:04:59;100334.67;;;16.23;100.00
25944;BME280;13742;49.306;8.636;2022-10-16T03:05:59;100334.23;;;16.23;100.00
25944;BME280;13742;49.306;8.636;2022-10-16T03:06:59;100332.13;;;16.24;100.00
25944;BME280;13742;49.306;8.636;2022-10-16T03:08:00;100335.34;;;16.23;100.00
25944;BME280;13742;49.306;8.636;2022-10-16T03:08:59;100337.84;;;16.23;100.00
25944;BME280;13742;49.306;8.636;2022-10-16T03:10:02;100338.62;;;16.24;100.00
25944;BME280;13742;49.306;8.636;2022-10-16T03:10:59;100342.50;;;16.25;100.00
25944;BME280;13742;49.306;8.636;2022-10-16T03:11:59;100344.00;;;16.25;100.00
25944;BME280;13742;49.306;8.636;2022-10-16T03:12:59;100342.95;;;16.25;100.00
25944;BME280;13742;49.306;8.636;2022-10-16T03:13:59;100341.63;;;16.26;100.00
25944;BME280;13742;49.306;8.636;2022-10-16T03:14:59;100344.05;;;16.26;100.00
25944;BME280;13742;49.306;8.636;2022-10-16T03:15:59;100341.28;;;16.25;100.00
25944;BME280;13742;49.306;8.636;2022-10-16T03:16:59;100341.52;;;16.27;100.00
25944;BME280;13742;49.306;8.636;2022-10-16T03:17:59;100340.84;;;16.27;100.00
25944;BME280;13742;49.306;8.636;2022-10-16T03:18:59;100340.55;;;16.26;100.00
25944;BME280;13742;49.306;8.636;2022-10-16T03:19:59;100337.56;;;16.26;100.00
25944;BME280;13742;49.306;8.636;2022-10-16T03:20:59;100335.50;;;16.26;100.00
25944;BME280;13742;49.306;8.636;2022-10-16T03:21:59;100337.89;;;16.26;100.00
25944;BME280;13742;49.306;8.636;2022-10-16T03:22:59;100336.90;;;16.26;100.00
25944;BME280;13742;49.306;8.636;2022-10-16T03:23:59;100334.34;;;16.25;100.00
25944;BME280;13742;49.306;8.636;2022-10-16T03:24:59;100338.95;;;16.26;100.00
25944;BME280;13742;49.306;8.636;2022-10-16T03:25:59;100339.89;;;16.26;100.00
25944;BME280;13742;49.306;8.636;2022-10-16T03:27:00;100336.13;;;16.26;100.00
25944;BME280;13742;49.306;8.636;2022-10-16T03:27:59;100335.72;;;16.26;100.00
25944;BME280;13742;49.306;8.636;2022-10-16T03:28:59;100333.94;;;16.25;100.00
25944;BME280;13742;49.306;8.636;2022-10-16T03:29:59;100330.94;;;16.25;100.00
25944;BME280;13742;49.306;8.636;2022-10-16T03:30:59;100335.52;;;16.25;100.00
25944;BME280;13742;49.306;8.636;2022-10-16T03:31:59;100336.95;;;16.24;100.00
25944;BME280;13742;49.306;8.636;2022-10-16T03:32:59;100334.45;;;16.25;100.00
25944;BME280;13742;49.306;8.636;2022-10-16T03:33:59;100330.62;;;16.25;100.00
25944;BME280;13742;49.306;8.636;2022-10-16T03:34:59;100330.39;;;16.24;100.00
25944;BME280;13742;49.306;8.636;2022-10-16T03:36:00;100330.44;;;16.25;100.00
25944;BME280;13742;49.306;8.636;2022-10-16T03:36:59;100327.00;;;16.25;100.00
25944;BME280;13742;49.306;8.636;2022-10-16T03:37:59;100325.50;;;16.25;100.00
25944;BME280;13742;49.306;8.636;2022-10-16T03:38:59;100322.56;;;16.24;100.00
25944;BME280;13742;49.306;8.636;2022-10-16T03:39:59;100319.50;;;16.25;100.00
25944;BME280;13742;49.306;8.636;2022-10-16T03:40:59;100314.94;;;16.25;100.00
25944;BME280;13742;49.306;8.636;2022-10-16T03:41:59;100312.06;;;16.24;100.00
25944;BME280;13742;49.306;8.636;2022-10-16T03:42:59;100311.28;;;16.24;100.00
25944;BME280;13742;49.306;8.636;2022-10-16T03:43:59;100314.46;;;16.24;100.00
25944;BME280;13742;49.306;8.636;2022-10-16T03:44:59;100316.95;;;16.24;100.00
25944;BME280;13742;49.306;8.636;2022-10-16T03:45:59;100316.55;;;16.24;100.00
25944;BME280;13742;49.306;8.636;2022-10-16T03:46:59;100318.41;;;16.23;100.00
25944;BME280;13742;49.306;8.636;2022-10-16T03:47:59;100318.19;;;16.22;100.00
25944;BME280;13742;49.306;8.636;2022-10-16T03:48:59;100325.52;;;16.22;100.00
25944;BME280;13742;49.306;8.636;2022-10-16T03:49:59;100323.17;;;16.22;100.00
25944;BME280;13742;49.306;8.636;2022-10-16T03:50:59;100329.44;;;16.22;100.00
25944;BME280;13742;49.306;8.636;2022-10-16T03:51:59;100329.17;;;16.22;100.00
25944;BME280;13742;49.306;8.636;2022-10-16T03:52:59;100326.84;;;16.22;100.00
25944;BME280;13742;49.306;8.636;2022-10-16T03:53:59;100325.29;;;16.21;100.00
25944;BME280;13742;49.306;8.636;2022-10-16T03:54:59;100324.13;;;16.21;100.00
25944;BME280;13742;49.306;8.636;2022-10-16T03:56:00;100328.45;;;16.21;100.00
25944;BME280;13742;49.306;8.636;2022-10-16T03:56:59;100332.50;;;16.22;100.00
25944;BME280;13742;49.306;8.636;2022-10-16T03:57:59;100333.01;;;16.20;100.00
25944;BME280;13742;49.306;8.636;2022-10-16T03:58:59;100335.94;;;16.21;100.00
25944;BME280;13742;49.306;8.636;2022-10-16T03:59:59;100335.40;;;16.20;100.00
25944;BME280;13742;49.306;8.636;2022-10-16T04:00:59;100337.00;;;16.20;100.00
25944;BME280;13742;49.306;8.636;2022-10-16T04:01:59;100335.66;;;16.20;100.00
25944;BME280;13742;49.306;8.636;2022-10-16T04:02:59;100335.83;;;16.20;100.00
25944;BME280;13742;49.306;8.636;2022-10-16T04:03:59;100336.67;;;16.20;100.00
25944;BME280;13742;49.306;8.636;2022-10-16T04:04:59;100335.50;;;16.20;100.00
25944;BME280;13742;49.306;8.636;2022-10-16T04:05:59;100341.67;;;16.20;100.00
25944;BME280;13742;49.306;8.636;2022-10-16T04:06:59;100342.34;;;16.20;100.00
25944;BME280;13742;49.306;8.636;2022-10-16T04:07:59;100344.33;;;16.20;100.00
25944;BME280;13742;49.306;8.636;2022-10-16T04:08:59;100345.50;;;16.20;100.00
25944;BME280;13742;49.306;8.636;2022-10-16T04:09:59;100346.72;;;16.20;100.00
25944;BME280;13742;49.306;8.636;2022-10-16T04:10:59;100344.73;;;16.20;100.00
25944;BME280;13742;49.306;8.636;2022-10-16T04:11:59;100342.33;;;16.20;100.00
25944;BME280;13742;49.306;8.636;2022-10-16T04:13:00;100347.34;;;16.20;100.00
25944;BME280;13742;49.306;8.636;2022-10-16T04:13:59;100347.44;;;16.21;100.00
25944;BME280;13742;49.306;8.636;2022-10-16T04:14:59;100347.78;;;16.22;100.00
25944;BME280;13742;49.306;8.636;2022-10-16T04:15:59;100343.61;;;16.22;100.00
25944;BME280;13742;49.306;8.636;2022-10-16T04:16:59;100343.16;;;16.23;100.00
25944;BME280;13742;49.306;8.636;2022-10-16T04:17:59;100337.22;;;16.23;100.00
25944;BME280;13742;49.306;8.636;2022-10-16T04:18:59;100345.38;;;16.24;100.00
25944;BME280;13742;49.306;8.636;2022-10-16T04:19:59;100342.11;;;16.24;100.00
25944;BME280;13742;49.306;8.636;2022-10-16T04:21:05;100346.23;;;16.23;100.00
25944;BME280;13742;49.306;8.636;2022-10-16T04:21:59;100348.33;;;16.23;100.00
25944;BME280;13742;49.306;8.636;2022-10-16T04:22:59;100349.94;;;16.24;100.00
25944;BME280;13742;49.306;8.636;2022-10-16T04:23:59;100347.23;;;16.23;100.00
25944;BME280;13742;49.306;8.636;2022-10-16T04:24:59;100347.67;;;16.23;100.00
25944;BME280;13742;49.306;8.636;2022-10-16T04:25:59;100345.73;;;16.23;100.00
25944;BME280;13742;49.306;8.636;2022-10-16T04:26:59;100341.39;;;16.23;100.00
25944;BME280;13742;49.306;8.636;2022-10-16T04:27:59;100340.11;;;16.22;100.00
25944;BME280;13742;49.306;8.636;2022-10-16T04:28:59;100340.72;;;16.24;100.00
25944;BME280;13742;49.306;8.636;2022-10-16T04:29:59;100348.89;;;16.23;100.00
25944;BME280;13742;49.306;8.636;2022-10-16T04:30:59;100351.72;;;16.23;100.00
25944;BME280;13742;49.306;8.636;2022-10-16T04:31:59;100356.88;;;16.23;100.00
25944;BME280;13742;49.306;8.636;2022-10-16T04:32:59;100360.16;;;16.22;100.00
25944;BME280;13742;49.306;8.636;2022-10-16T04:33:59;100363.05;;;16.21;100.00
25944;BME280;13742;49.306;8.636;2022-10-16T04:34:59;100367.61;;;16.21;100.00
25944;BME280;13742;49.306;8.636;2022-10-16T04:36:00;100371.33;;;16.20;100.00
25944;BME280;13742;49.306;8.636;2022-10-16T04:36:59;100374.43;;;16.21;100.00
25944;BME280;13742;49.306;8.636;2022-10-16T04:37:59;100374.77;;;16.21;100.00
25944;BME280;13742;49.306;8.636;2022-10-16T04:38:59;100371.55;;;16.20;100.00
25944;BME280;13742;49.306;8.636;2022-10-16T04:39:59;100366.89;;;16.20;100.00
25944;BME280;13742;49.306;8.636;2022-10-16T04:40:59;100361.43;;;16.19;100.00
25944;BME280;13742;49.306;8.636;2022-10-16T04:41:59;100365.98;;;16.20;100.00
25944;BME280;13742;49.306;8.636;2022-10-16T04:42:59;100364.83;;;16.19;100.00
25944;BME280;13742;49.306;8.636;2022-10-16T04:43:59;100363.05;;;16.20;100.00
25944;BME280;13742;49.306;8.636;2022-10-16T04:44:59;100357.38;;;16.20;100.00
25944;BME280;13742;49.306;8.636;2022-10-16T04:45:59;100353.33;;;16.19;100.00
25944;BME280;13742;49.306;8.636;2022-10-16T04:46:59;100352.89;;;16.18;100.00
25944;BME280;13742;49.306;8.636;2022-10-16T04:47:59;100352.60;;;16.19;100.00
25944;BME280;13742;49.306;8.636;2022-10-16T04:48:59;100353.49;;;16.19;100.00
25944;BME280;13742;49.306;8.636;2022-10-16T04:50:01;100357.59;;;16.19;100.00
25944;BME280;13742;49.306;8.636;2022-10-16T04:50:59;100359.60;;;16.18;100.00
25944;BME280;13742;49.306;8.636;2022-10-16T04:51:59;100363.72;;;16.18;100.00
25944;BME280;13742;49.306;8.636;2022-10-16T04:52:59;100363.95;;;16.18;100.00
25944;BME280;13742;49.306;8.636;2022-10-16T04:53:59;100360.54;;;16.18;100.00
25944;BME280;13742;49.306;8.636;2022-10-16T04:55:02;100358.70;;;16.18;100.00
25944;BME280;13742;49.306;8.636;2022-10-16T04:55:59;100359.66;;;16.17;100.00
25944;BME280;13742;49.306;8.636;2022-10-16T04:56:59;100360.89;;;16.17;100.00
25944;BME280;13742;49.306;8.636;2022-10-16T04:57:59;100363.22;;;16.17;100.00
25944;BME280;13742;49.306;8.636;2022-10-16T04:58:59;100363.03;;;16.18;100.00
25944;BME280;13742;49.306;8.636;2022-10-16T04:59:59;100363.48;;;16.17;100.00
25944;BME280;13742;49.306;8.636;2022-10-16T05:00:59;100364.81;;;16.17;100.00
25944;BME280;13742;49.306;8.636;2022-10-16T05:01:59;100364.76;;;16.16;100.00
25944;BME280;13742;49.306;8.636;2022-10-16T05:03:00;100367.09;;;16.16;100.00
25944;BME280;13742;49.306;8.636;2022-10-16T05:03:59;100366.59;;;16.16;100.00
25944;BME280;13742;49.306;8.636;2022-10-16T05:04:59;100364.81;;;16.15;100.00
25944;BME280;13742;49.306;8.636;2022-10-16T05:05:59;100361.55;;;16.15;100.00
25944;BME280;13742;49.306;8.636;2022-10-16T05:06:59;100357.70;;;16.15;100.00
25944;BME280;13742;49.306;8.636;2022-10-16T05:07:59;100356.98;;;16.14;100.00
25944;BME280;13742;49.306;8.636;2022-10-16T05:08:59;100352.50;;;16.14;100.00
25944;BME280;13742;49.306;8.636;2022-10-16T05:09:59;100349.00;;;16.14;100.00
25944;BME280;13742;49.306;8.636;2022-10-16T05:10:59;100346.20;;;16.13;100.00
25944;BME280;13742;49.306;8.636;2022-10-16T05:11:59;100349.43;;;16.13;100.00
25944;BME280;13742;49.306;8.636;2022-10-16T05:12:59;100351.03;;;16.13;100.00
25944;BME280;13742;49.306;8.636;2022-10-16T05:13:59;100356.14;;;16.12;100.00
25944;BME280;13742;49.306;8.636;2022-10-16T05:14:59;100357.04;;;16.12;100.00
25944;BME280;13742;49.306;8.636;2022-10-16T05:15:59;100365.92;;;16.13;100.00
25944;BME280;13742;49.306;8.636;2022-10-16T05:16:59;100368.97;;;16.12;100.00
25944;BME280;13742;49.306;8.636;2022-10-16T05:17:59;100370.09;;;16.12;100.00
25944;BME280;13742;49.306;8.636;2022-10-16T05:18:59;100370.81;;;16.11;100.00
25944;BME280;13742;49.306;8.636;2022-10-16T05:19:59;100371.14;;;16.11;100.00
25944;BME280;13742;49.306;8.636;2022-10-16T05:20:59;100370.66;;;16.11;100.00
25944;BME280;13742;49.306;8.636;2022-10-16T05:21:59;100372.41;;;16.11;100.00
25944;BME280;13742;49.306;8.636;2022-10-16T05:22:59;100371.30;;;16.11;100.00
25944;BME280;13742;49.306;8.636;2022-10-16T05:23:59;100370.93;;;16.10;100.00
25944;BME280;13742;49.306;8.636;2022-10-16T05:24:59;100369.25;;;16.11;100.00
25944;BME280;13742;49.306;8.636;2022-10-16T05:25:59;100370.08;;;16.11;100.00
25944;BME280;13742;49.306;8.636;2022-10-16T05:26:59;100371.98;;;16.11;100.00
25944;BME280;13742;49.306;8.636;2022-10-16T05:27:59;100367.98;;;16.11;100.00